Terminal Aerodrome Forecast
Issued by NWS

Home | Current Version | Previous Version | Text Only | Print | Product List | Glossary On
Versions: 1 2 3 4 5 6 7 8 9 10 11 12 13 14 15 16 17 18 19 20 21 22 23 24 25 26 27 28 29 30 31 32 33 34 35 36 37
000
FTUS45 KBOU 041139
TAFBJC
TAF
KBJC 041139Z 0412/0512 VRB05KT P6SM SKC
     FM041700 VRB05KT P6SM BKN220
     FM042100 11007KT P6SM SCT120 BKN200
     FM050000 08006KT P6SM FEW070 BKN110 BKN150
     FM050200 28007KT P6SM VCSH BKN060 OVC100
     FM050600 29008KT P6SM VCSH SCT060 BKN100
     FM051100 25006KT P6SM FEW060 SCT100=

USA.gov is the U.S. government's official web portal to all federal, state and local government web resources and services.